Changting, China
Current Conditions -  °F | °C
As of 8:00 AM on Friday 28 Nov 2014 (Local Time) from ZSAM Reporting Station
Haze Haze  
Wind Chill: 68°   Ceiling: 5000
Heat Index: 68°   Visibility: 1.5mi
Dew Point: 68°   Wind: 4mph
Humidity: 100%   Direction: 30°NNE
Pressure: 30.03"   Gusts: NA
Location:  25.85°N, 116.37°E
Report Text: ZSAM 280000Z 03002MPS 2500 BR BKN050 20/20 Q1017 BECMGTL01304000 BR
Loading
Personal Weather Stations






























Interactive Weather Map New forecast layout! Learn more

10-Day Weather Forecast

Advertisements
Track Severe Weather on mobile